sensor_id;sensor_type;location;lat;lon;timestamp;P1;durP1;ratioP1;P2;durP2;ratioP2
1569;SDS011;778;50.120;8.698;2024-01-30T00:00:18;18.90;;;14.43;;
1569;SDS011;778;50.120;8.698;2024-01-30T00:02:47;21.53;;;13.60;;
1569;SDS011;778;50.120;8.698;2024-01-30T00:05:16;20.40;;;14.40;;
1569;SDS011;778;50.120;8.698;2024-01-30T00:07:45;15.80;;;12.80;;
1569;SDS011;778;50.120;8.698;2024-01-30T00:10:15;20.73;;;14.90;;
1569;SDS011;778;50.120;8.698;2024-01-30T00:12:44;19.13;;;13.10;;
1569;SDS011;778;50.120;8.698;2024-01-30T00:15:13;15.50;;;12.90;;
1569;SDS011;778;50.120;8.698;2024-01-30T00:17:42;14.23;;;12.73;;
1569;SDS011;778;50.120;8.698;2024-01-30T00:20:11;14.80;;;12.27;;
1569;SDS011;778;50.120;8.698;2024-01-30T00:22:40;17.57;;;13.40;;
1569;SDS011;778;50.120;8.698;2024-01-30T00:25:09;16.00;;;13.00;;
1569;SDS011;778;50.120;8.698;2024-01-30T00:27:39;16.70;;;12.90;;
1569;SDS011;778;50.120;8.698;2024-01-30T00:30:08;15.87;;;12.10;;
1569;SDS011;778;50.120;8.698;2024-01-30T00:32:38;17.50;;;12.17;;
1569;SDS011;778;50.120;8.698;2024-01-30T00:35:06;13.67;;;11.47;;
1569;SDS011;778;50.120;8.698;2024-01-30T00:37:37;11.40;;;8.90;;
1569;SDS011;778;50.120;8.698;2024-01-30T00:40:06;18.23;;;12.20;;
1569;SDS011;778;50.120;8.698;2024-01-30T00:42:37;13.43;;;12.03;;
1569;SDS011;778;50.120;8.698;2024-01-30T00:45:11;17.40;;;13.07;;
1569;SDS011;778;50.120;8.698;2024-01-30T00:47:41;15.60;;;12.83;;
1569;SDS011;778;50.120;8.698;2024-01-30T00:50:09;17.30;;;13.43;;
1569;SDS011;778;50.120;8.698;2024-01-30T00:52:38;16.50;;;13.80;;
1569;SDS011;778;50.120;8.698;2024-01-30T00:55:08;20.73;;;13.70;;
1569;SDS011;778;50.120;8.698;2024-01-30T00:57:39;16.30;;;13.87;;
1569;SDS011;778;50.120;8.698;2024-01-30T01:00:11;17.10;;;11.73;;
1569;SDS011;778;50.120;8.698;2024-01-30T01:02:43;20.67;;;13.63;;
1569;SDS011;778;50.120;8.698;2024-01-30T01:05:12;16.60;;;12.13;;
1569;SDS011;778;50.120;8.698;2024-01-30T01:07:41;13.70;;;11.90;;
1569;SDS011;778;50.120;8.698;2024-01-30T01:10:10;18.00;;;13.20;;
1569;SDS011;778;50.120;8.698;2024-01-30T01:12:41;11.37;;;9.77;;
1569;SDS011;778;50.120;8.698;2024-01-30T01:15:10;14.97;;;12.13;;
1569;SDS011;778;50.120;8.698;2024-01-30T01:17:39;19.23;;;13.40;;
1569;SDS011;778;50.120;8.698;2024-01-30T01:20:08;16.87;;;11.47;;
1569;SDS011;778;50.120;8.698;2024-01-30T01:22:37;20.30;;;13.30;;
1569;SDS011;778;50.120;8.698;2024-01-30T01:25:06;17.37;;;12.80;;
1569;SDS011;778;50.120;8.698;2024-01-30T01:27:36;18.00;;;13.30;;
1569;SDS011;778;50.120;8.698;2024-01-30T01:30:10;11.63;;;8.90;;
1569;SDS011;778;50.120;8.698;2024-01-30T01:32:45;14.63;;;13.07;;
1569;SDS011;778;50.120;8.698;2024-01-30T01:35:17;14.87;;;12.50;;
1569;SDS011;778;50.120;8.698;2024-01-30T01:37:46;16.83;;;12.43;;
1569;SDS011;778;50.120;8.698;2024-01-30T01:40:22;15.97;;;12.17;;
1569;SDS011;778;50.120;8.698;2024-01-30T01:42:51;17.30;;;12.97;;
1569;SDS011;778;50.120;8.698;2024-01-30T01:45:23;13.47;;;10.83;;
1569;SDS011;778;50.120;8.698;2024-01-30T01:47:52;19.30;;;12.17;;
1569;SDS011;778;50.120;8.698;2024-01-30T01:50:21;17.30;;;11.13;;
1569;SDS011;778;50.120;8.698;2024-01-30T01:52:50;13.87;;;11.83;;
1569;SDS011;778;50.120;8.698;2024-01-30T01:55:20;14.83;;;11.80;;
1569;SDS011;778;50.120;8.698;2024-01-30T01:57:51;15.53;;;13.07;;
1569;SDS011;778;50.120;8.698;2024-01-30T02:00:22;14.20;;;12.23;;
1569;SDS011;778;50.120;8.698;2024-01-30T02:02:52;16.70;;;13.60;;
1569;SDS011;778;50.120;8.698;2024-01-30T02:05:21;15.13;;;12.17;;
1569;SDS011;778;50.120;8.698;2024-01-30T02:07:51;19.03;;;12.93;;
1569;SDS011;778;50.120;8.698;2024-01-30T02:10:20;16.90;;;12.50;;
1569;SDS011;778;50.120;8.698;2024-01-30T02:12:49;14.60;;;12.83;;
1569;SDS011;778;50.120;8.698;2024-01-30T02:15:18;16.60;;;13.57;;
1569;SDS011;778;50.120;8.698;2024-01-30T02:17:48;15.90;;;14.20;;
1569;SDS011;778;50.120;8.698;2024-01-30T02:20:17;15.73;;;11.80;;
1569;SDS011;778;50.120;8.698;2024-01-30T02:22:47;18.10;;;12.67;;
1569;SDS011;778;50.120;8.698;2024-01-30T02:25:16;13.60;;;12.17;;
1569;SDS011;778;50.120;8.698;2024-01-30T02:27:45;18.03;;;14.77;;
1569;SDS011;778;50.120;8.698;2024-01-30T02:30:14;18.00;;;12.87;;
1569;SDS011;778;50.120;8.698;2024-01-30T02:32:43;15.67;;;12.30;;
1569;SDS011;778;50.120;8.698;2024-01-30T02:35:12;15.47;;;13.70;;
1569;SDS011;778;50.120;8.698;2024-01-30T02:37:41;15.10;;;10.67;;
1569;SDS011;778;50.120;8.698;2024-01-30T02:40:11;14.67;;;12.97;;
1569;SDS011;778;50.120;8.698;2024-01-30T02:42:40;16.03;;;12.83;;
1569;SDS011;778;50.120;8.698;2024-01-30T02:45:09;15.60;;;13.40;;
1569;SDS011;778;50.120;8.698;2024-01-30T02:47:39;20.57;;;13.83;;
1569;SDS011;778;50.120;8.698;2024-01-30T02:50:08;17.43;;;13.63;;
1569;SDS011;778;50.120;8.698;2024-01-30T02:52:37;18.77;;;14.10;;
1569;SDS011;778;50.120;8.698;2024-01-30T02:55:06;15.13;;;12.90;;
1569;SDS011;778;50.120;8.698;2024-01-30T02:57:36;18.20;;;13.80;;
1569;SDS011;778;50.120;8.698;2024-01-30T03:00:06;18.70;;;13.20;;
1569;SDS011;778;50.120;8.698;2024-01-30T03:02:36;13.63;;;12.23;;
1569;SDS011;778;50.120;8.698;2024-01-30T03:05:07;18.03;;;13.60;;
1569;SDS011;778;50.120;8.698;2024-01-30T03:07:36;17.83;;;13.43;;
1569;SDS011;778;50.120;8.698;2024-01-30T03:10:05;14.93;;;12.30;;
1569;SDS011;778;50.120;8.698;2024-01-30T03:12:34;13.77;;;11.20;;
1569;SDS011;778;50.120;8.698;2024-01-30T03:15:05;15.87;;;12.33;;
1569;SDS011;778;50.120;8.698;2024-01-30T03:17:34;15.97;;;12.83;;
1569;SDS011;778;50.120;8.698;2024-01-30T03:20:04;11.90;;;9.20;;
1569;SDS011;778;50.120;8.698;2024-01-30T03:22:33;15.70;;;13.07;;
1569;SDS011;778;50.120;8.698;2024-01-30T03:25:02;15.23;;;12.40;;
1569;SDS011;778;50.120;8.698;2024-01-30T03:27:32;22.33;;;13.13;;
1569;SDS011;778;50.120;8.698;2024-01-30T03:30:03;18.43;;;13.70;;
1569;SDS011;778;50.120;8.698;2024-01-30T03:32:32;14.73;;;10.90;;
1569;SDS011;778;50.120;8.698;2024-01-30T03:35:01;17.00;;;12.97;;
1569;SDS011;778;50.120;8.698;2024-01-30T03:37:30;15.00;;;12.37;;
1569;SDS011;778;50.120;8.698;2024-01-30T03:39:59;19.83;;;13.27;;
1569;SDS011;778;50.120;8.698;2024-01-30T03:42:28;19.73;;;12.57;;
1569;SDS011;778;50.120;8.698;2024-01-30T03:44:57;18.27;;;12.87;;
1569;SDS011;778;50.120;8.698;2024-01-30T03:47:27;10.90;;;9.87;;
1569;SDS011;778;50.120;8.698;2024-01-30T03:49:56;17.30;;;12.87;;
1569;SDS011;778;50.120;8.698;2024-01-30T03:52:25;14.70;;;11.80;;
1569;SDS011;778;50.120;8.698;2024-01-30T03:54:54;14.23;;;12.73;;
1569;SDS011;778;50.120;8.698;2024-01-30T03:57:23;16.33;;;13.00;;
1569;SDS011;778;50.120;8.698;2024-01-30T03:59:52;17.20;;;13.70;;
1569;SDS011;778;50.120;8.698;2024-01-30T04:02:21;17.63;;;14.07;;
1569;SDS011;778;50.120;8.698;2024-01-30T04:04:51;17.40;;;13.80;;
1569;SDS011;778;50.120;8.698;2024-01-30T04:07:20;18.23;;;14.30;;
1569;SDS011;778;50.120;8.698;2024-01-30T04:09:50;19.07;;;14.43;;
1569;SDS011;778;50.120;8.698;2024-01-30T04:12:19;13.97;;;11.50;;
1569;SDS011;778;50.120;8.698;2024-01-30T04:14:47;12.20;;;10.47;;
1569;SDS011;778;50.120;8.698;2024-01-30T04:17:16;14.90;;;13.20;;
1569;SDS011;778;50.120;8.698;2024-01-30T04:19:45;17.77;;;13.57;;
1569;SDS011;778;50.120;8.698;2024-01-30T04:22:15;18.80;;;13.33;;
1569;SDS011;778;50.120;8.698;2024-01-30T04:24:44;16.47;;;12.40;;
1569;SDS011;778;50.120;8.698;2024-01-30T04:27:13;19.60;;;13.53;;
1569;SDS011;778;50.120;8.698;2024-01-30T04:29:42;15.17;;;12.47;;
1569;SDS011;778;50.120;8.698;2024-01-30T04:32:11;13.90;;;12.27;;
1569;SDS011;778;50.120;8.698;2024-01-30T04:34:39;18.10;;;13.00;;
1569;SDS011;778;50.120;8.698;2024-01-30T04:37:08;13.40;;;12.00;;
1569;SDS011;778;50.120;8.698;2024-01-30T04:39:39;16.23;;;12.70;;
1569;SDS011;778;50.120;8.698;2024-01-30T04:42:08;17.80;;;12.33;;
1569;SDS011;778;50.120;8.698;2024-01-30T04:44:37;13.93;;;12.53;;
1569;SDS011;778;50.120;8.698;2024-01-30T04:47:05;18.10;;;13.63;;
1569;SDS011;778;50.120;8.698;2024-01-30T04:49:35;14.30;;;11.70;;
1569;SDS011;778;50.120;8.698;2024-01-30T04:52:04;15.63;;;13.33;;
1569;SDS011;778;50.120;8.698;2024-01-30T04:54:34;15.70;;;12.70;;
1569;SDS011;778;50.120;8.698;2024-01-30T04:57:04;17.07;;;13.57;;
1569;SDS011;778;50.120;8.698;2024-01-30T04:59:35;15.73;;;13.00;;
1569;SDS011;778;50.120;8.698;2024-01-30T05:02:04;16.43;;;13.10;;
1569;SDS011;778;50.120;8.698;2024-01-30T05:04:33;17.13;;;12.77;;
1569;SDS011;778;50.120;8.698;2024-01-30T05:07:02;20.23;;;14.30;;
1569;SDS011;778;50.120;8.698;2024-01-30T05:09:31;14.90;;;13.00;;
1569;SDS011;778;50.120;8.698;2024-01-30T05:12:00;10.37;;;9.27;;
1569;SDS011;778;50.120;8.698;2024-01-30T05:14:31;16.20;;;13.10;;
1569;SDS011;778;50.120;8.698;2024-01-30T05:17:00;16.53;;;12.60;;
1569;SDS011;778;50.120;8.698;2024-01-30T05:19:29;18.43;;;13.30;;
1569;SDS011;778;50.120;8.698;2024-01-30T05:21:58;15.20;;;13.60;;
1569;SDS011;778;50.120;8.698;2024-01-30T05:24:27;15.73;;;10.50;;
1569;SDS011;778;50.120;8.698;2024-01-30T05:26:56;15.10;;;12.77;;
1569;SDS011;778;50.120;8.698;2024-01-30T05:29:24;16.63;;;13.13;;
1569;SDS011;778;50.120;8.698;2024-01-30T05:31:55;17.97;;;14.60;;
1569;SDS011;778;50.120;8.698;2024-01-30T05:34:24;15.40;;;13.00;;
1569;SDS011;778;50.120;8.698;2024-01-30T05:36:53;16.70;;;14.93;;
1569;SDS011;778;50.120;8.698;2024-01-30T05:39:22;13.47;;;10.47;;
1569;SDS011;778;50.120;8.698;2024-01-30T05:41:51;15.93;;;14.03;;
1569;SDS011;778;50.120;8.698;2024-01-30T05:44:20;19.87;;;14.40;;
1569;SDS011;778;50.120;8.698;2024-01-30T05:46:49;17.57;;;14.43;;
1569;SDS011;778;50.120;8.698;2024-01-30T05:49:19;21.03;;;13.90;;
1569;SDS011;778;50.120;8.698;2024-01-30T05:51:48;19.90;;;14.23;;
1569;SDS011;778;50.120;8.698;2024-01-30T05:54:17;19.30;;;14.10;;
1569;SDS011;778;50.120;8.698;2024-01-30T05:56:46;13.60;;;11.37;;
1569;SDS011;778;50.120;8.698;2024-01-30T05:59:15;17.73;;;14.97;;
1569;SDS011;778;50.120;8.698;2024-01-30T06:01:45;20.50;;;15.53;;
1569;SDS011;778;50.120;8.698;2024-01-30T06:04:14;21.00;;;15.67;;
1569;SDS011;778;50.120;8.698;2024-01-30T06:06:45;15.40;;;13.30;;
1569;SDS011;778;50.120;8.698;2024-01-30T06:09:14;19.47;;;15.60;;
1569;SDS011;778;50.120;8.698;2024-01-30T06:11:42;13.10;;;11.77;;
1569;SDS011;778;50.120;8.698;2024-01-30T06:14:11;13.83;;;12.40;;
1569;SDS011;778;50.120;8.698;2024-01-30T06:16:40;22.40;;;17.23;;
1569;SDS011;778;50.120;8.698;2024-01-30T06:19:09;22.07;;;15.73;;
1569;SDS011;778;50.120;8.698;2024-01-30T06:21:38;24.90;;;14.10;;
1569;SDS011;778;50.120;8.698;2024-01-30T06:24:08;16.80;;;13.93;;
1569;SDS011;778;50.120;8.698;2024-01-30T06:26:37;15.90;;;14.30;;
1569;SDS011;778;50.120;8.698;2024-01-30T06:29:06;19.50;;;14.90;;
1569;SDS011;778;50.120;8.698;2024-01-30T06:31:39;16.57;;;13.73;;
1569;SDS011;778;50.120;8.698;2024-01-30T06:34:09;16.27;;;14.23;;
1569;SDS011;778;50.120;8.698;2024-01-30T06:36:38;17.90;;;13.57;;
1569;SDS011;778;50.120;8.698;2024-01-30T06:39:08;19.00;;;13.63;;
1569;SDS011;778;50.120;8.698;2024-01-30T06:41:37;17.03;;;14.90;;
1569;SDS011;778;50.120;8.698;2024-01-30T06:44:06;17.60;;;14.70;;
1569;SDS011;778;50.120;8.698;2024-01-30T06:46:35;16.83;;;12.40;;
1569;SDS011;778;50.120;8.698;2024-01-30T06:49:04;17.10;;;13.70;;
1569;SDS011;778;50.120;8.698;2024-01-30T06:51:33;14.83;;;13.30;;
1569;SDS011;778;50.120;8.698;2024-01-30T06:54:02;13.87;;;11.17;;
1569;SDS011;778;50.120;8.698;2024-01-30T06:56:32;20.50;;;13.90;;
1569;SDS011;778;50.120;8.698;2024-01-30T06:59:02;17.00;;;13.43;;
1569;SDS011;778;50.120;8.698;2024-01-30T07:01:31;18.10;;;14.43;;
1569;SDS011;778;50.120;8.698;2024-01-30T07:04:00;19.97;;;14.33;;
1569;SDS011;778;50.120;8.698;2024-01-30T07:06:29;19.67;;;14.90;;
1569;SDS011;778;50.120;8.698;2024-01-30T07:08:58;11.50;;;10.30;;
1569;SDS011;778;50.120;8.698;2024-01-30T07:11:27;15.33;;;13.77;;
1569;SDS011;778;50.120;8.698;2024-01-30T07:13:57;21.43;;;15.57;;
1569;SDS011;778;50.120;8.698;2024-01-30T07:16:26;20.90;;;15.27;;
1569;SDS011;778;50.120;8.698;2024-01-30T07:18:54;19.17;;;15.10;;
1569;SDS011;778;50.120;8.698;2024-01-30T07:21:24;23.97;;;15.20;;
1569;SDS011;778;50.120;8.698;2024-01-30T07:23:55;19.57;;;16.07;;
1569;SDS011;778;50.120;8.698;2024-01-30T07:26:23;21.30;;;15.50;;
1569;SDS011;778;50.120;8.698;2024-01-30T07:28:52;21.00;;;11.93;;
1569;SDS011;778;50.120;8.698;2024-01-30T07:31:23;19.00;;;12.50;;
1569;SDS011;778;50.120;8.698;2024-01-30T07:33:54;21.43;;;14.97;;
1569;SDS011;778;50.120;8.698;2024-01-30T07:36:23;24.30;;;13.13;;
1569;SDS011;778;50.120;8.698;2024-01-30T07:38:52;22.70;;;15.23;;
1569;SDS011;778;50.120;8.698;2024-01-30T07:41:21;19.93;;;14.70;;
1569;SDS011;778;50.120;8.698;2024-01-30T07:43:51;24.13;;;15.90;;
1569;SDS011;778;50.120;8.698;2024-01-30T07:46:20;24.47;;;15.57;;
1569;SDS011;778;50.120;8.698;2024-01-30T07:48:50;19.57;;;15.07;;
1569;SDS011;778;50.120;8.698;2024-01-30T07:51:21;18.57;;;12.17;;
1569;SDS011;778;50.120;8.698;2024-01-30T07:53:49;20.13;;;14.90;;
1569;SDS011;778;50.120;8.698;2024-01-30T07:56:18;21.53;;;15.50;;
1569;SDS011;778;50.120;8.698;2024-01-30T07:58:48;20.47;;;15.07;;
1569;SDS011;778;50.120;8.698;2024-01-30T08:01:17;18.20;;;15.10;;
1569;SDS011;778;50.120;8.698;2024-01-30T08:03:47;21.27;;;15.63;;
1569;SDS011;778;50.120;8.698;2024-01-30T08:06:16;18.27;;;13.60;;
1569;SDS011;778;50.120;8.698;2024-01-30T08:08:46;22.43;;;14.97;;
1569;SDS011;778;50.120;8.698;2024-01-30T08:11:15;19.20;;;15.20;;
1569;SDS011;778;50.120;8.698;2024-01-30T08:13:45;19.23;;;14.37;;
1569;SDS011;778;50.120;8.698;2024-01-30T08:16:14;19.27;;;16.03;;
1569;SDS011;778;50.120;8.698;2024-01-30T08:18:43;22.63;;;16.23;;
1569;SDS011;778;50.120;8.698;2024-01-30T08:21:13;21.03;;;15.80;;
1569;SDS011;778;50.120;8.698;2024-01-30T08:23:42;20.30;;;17.20;;
1569;SDS011;778;50.120;8.698;2024-01-30T08:26:11;23.40;;;18.73;;
1569;SDS011;778;50.120;8.698;2024-01-30T08:28:39;18.37;;;15.87;;
1569;SDS011;778;50.120;8.698;2024-01-30T08:31:10;23.17;;;17.87;;
1569;SDS011;778;50.120;8.698;2024-01-30T08:33:39;22.60;;;18.00;;
1569;SDS011;778;50.120;8.698;2024-01-30T08:36:10;24.53;;;16.63;;
1569;SDS011;778;50.120;8.698;2024-01-30T08:38:40;20.03;;;17.07;;
1569;SDS011;778;50.120;8.698;2024-01-30T08:41:08;15.63;;;13.90;;
1569;SDS011;778;50.120;8.698;2024-01-30T08:43:37;21.60;;;14.77;;
1569;SDS011;778;50.120;8.698;2024-01-30T08:46:06;30.93;;;19.13;;
1569;SDS011;778;50.120;8.698;2024-01-30T08:48:35;29.90;;;19.53;;
1569;SDS011;778;50.120;8.698;2024-01-30T08:51:04;24.97;;;19.33;;
1569;SDS011;778;50.120;8.698;2024-01-30T08:53:34;22.80;;;19.00;;
1569;SDS011;778;50.120;8.698;2024-01-30T08:56:05;22.10;;;19.70;;
1569;SDS011;778;50.120;8.698;2024-01-30T08:58:34;29.43;;;20.43;;
1569;SDS011;778;50.120;8.698;2024-01-30T09:01:03;24.73;;;19.70;;
1569;SDS011;778;50.120;8.698;2024-01-30T09:03:33;23.93;;;19.50;;
1569;SDS011;778;50.120;8.698;2024-01-30T09:06:03;24.07;;;20.50;;
1569;SDS011;778;50.120;8.698;2024-01-30T09:08:32;21.33;;;18.40;;
1569;SDS011;778;50.120;8.698;2024-01-30T09:11:02;21.90;;;19.57;;
1569;SDS011;778;50.120;8.698;2024-01-30T09:13:37;21.17;;;18.70;;
1569;SDS011;778;50.120;8.698;2024-01-30T09:16:06;20.83;;;18.37;;
1569;SDS011;778;50.120;8.698;2024-01-30T09:18:35;24.93;;;19.17;;
1569;SDS011;778;50.120;8.698;2024-01-30T09:21:04;18.97;;;16.80;;
1569;SDS011;778;50.120;8.698;2024-01-30T09:23:32;19.80;;;17.70;;
1569;SDS011;778;50.120;8.698;2024-01-30T09:26:01;21.63;;;18.30;;
1569;SDS011;778;50.120;8.698;2024-01-30T09:28:31;21.70;;;16.60;;
1569;SDS011;778;50.120;8.698;2024-01-30T09:31:00;24.23;;;17.83;;
1569;SDS011;778;50.120;8.698;2024-01-30T09:33:29;22.53;;;17.97;;
1569;SDS011;778;50.120;8.698;2024-01-30T09:35:58;21.47;;;16.23;;
1569;SDS011;778;50.120;8.698;2024-01-30T09:38:27;22.37;;;16.87;;
1569;SDS011;778;50.120;8.698;2024-01-30T09:40:55;19.30;;;17.23;;
1569;SDS011;778;50.120;8.698;2024-01-30T09:43:24;18.47;;;16.57;;
1569;SDS011;778;50.120;8.698;2024-01-30T09:45:55;23.27;;;17.43;;
1569;SDS011;778;50.120;8.698;2024-01-30T09:48:24;19.30;;;17.17;;
1569;SDS011;778;50.120;8.698;2024-01-30T09:50:54;22.90;;;17.80;;
1569;SDS011;778;50.120;8.698;2024-01-30T09:53:23;23.90;;;17.87;;
1569;SDS011;778;50.120;8.698;2024-01-30T09:55:52;19.20;;;17.20;;
1569;SDS011;778;50.120;8.698;2024-01-30T09:58:20;19.93;;;16.40;;
1569;SDS011;778;50.120;8.698;2024-01-30T10:00:49;19.87;;;16.80;;
1569;SDS011;778;50.120;8.698;2024-01-30T10:03:22;20.97;;;18.77;;
1569;SDS011;778;50.120;8.698;2024-01-30T10:05:52;22.00;;;16.47;;
1569;SDS011;778;50.120;8.698;2024-01-30T10:08:20;18.47;;;16.13;;
1569;SDS011;778;50.120;8.698;2024-01-30T10:10:49;18.90;;;15.93;;
1569;SDS011;778;50.120;8.698;2024-01-30T10:13:18;22.03;;;16.70;;
1569;SDS011;778;50.120;8.698;2024-01-30T10:15:47;19.57;;;16.13;;
1569;SDS011;778;50.120;8.698;2024-01-30T10:18:17;19.70;;;17.70;;
1569;SDS011;778;50.120;8.698;2024-01-30T10:20:47;19.97;;;17.80;;
1569;SDS011;778;50.120;8.698;2024-01-30T10:23:16;18.60;;;16.70;;
1569;SDS011;778;50.120;8.698;2024-01-30T10:25:45;19.40;;;16.50;;
1569;SDS011;778;50.120;8.698;2024-01-30T10:28:14;18.57;;;16.03;;
1569;SDS011;778;50.120;8.698;2024-01-30T10:30:43;18.20;;;13.37;;
1569;SDS011;778;50.120;8.698;2024-01-30T10:33:12;21.90;;;17.60;;
1569;SDS011;778;50.120;8.698;2024-01-30T10:35:41;27.63;;;17.00;;
1569;SDS011;778;50.120;8.698;2024-01-30T10:38:11;20.23;;;17.50;;
1569;SDS011;778;50.120;8.698;2024-01-30T10:40:41;19.07;;;16.70;;
1569;SDS011;778;50.120;8.698;2024-01-30T10:43:11;23.43;;;15.63;;
1569;SDS011;778;50.120;8.698;2024-01-30T10:45:42;18.20;;;16.00;;
1569;SDS011;778;50.120;8.698;2024-01-30T10:48:13;24.30;;;16.00;;
1569;SDS011;778;50.120;8.698;2024-01-30T10:50:44;18.90;;;15.33;;
1569;SDS011;778;50.120;8.698;2024-01-30T10:53:27;19.13;;;16.20;;
1569;SDS011;778;50.120;8.698;2024-01-30T10:55:57;16.60;;;14.90;;
1569;SDS011;778;50.120;8.698;2024-01-30T10:58:27;14.57;;;12.57;;
1569;SDS011;778;50.120;8.698;2024-01-30T11:00:56;16.87;;;12.07;;
1569;SDS011;778;50.120;8.698;2024-01-30T11:03:25;17.10;;;15.30;;
1569;SDS011;778;50.120;8.698;2024-01-30T11:05:58;15.63;;;13.93;;
1569;SDS011;778;50.120;8.698;2024-01-30T11:08:31;18.10;;;15.90;;
1569;SDS011;778;50.120;8.698;2024-01-30T11:11:00;17.93;;;15.93;;
1569;SDS011;778;50.120;8.698;2024-01-30T11:13:29;20.23;;;17.10;;
1569;SDS011;778;50.120;8.698;2024-01-30T11:16:02;17.90;;;16.00;;
1569;SDS011;778;50.120;8.698;2024-01-30T11:18:32;16.97;;;14.73;;
1569;SDS011;778;50.120;8.698;2024-01-30T11:21:04;18.97;;;17.00;;
1569;SDS011;778;50.120;8.698;2024-01-30T11:23:34;18.00;;;16.10;;
1569;SDS011;778;50.120;8.698;2024-01-30T11:26:03;19.83;;;15.73;;
1569;SDS011;778;50.120;8.698;2024-01-30T11:28:32;17.80;;;16.00;;
1569;SDS011;778;50.120;8.698;2024-01-30T11:31:05;17.97;;;16.17;;
1569;SDS011;778;50.120;8.698;2024-01-30T11:33:35;17.20;;;15.60;;
1569;SDS011;778;50.120;8.698;2024-01-30T11:36:04;22.13;;;16.90;;
1569;SDS011;778;50.120;8.698;2024-01-30T11:38:36;18.20;;;16.40;;
1569;SDS011;778;50.120;8.698;2024-01-30T11:41:07;19.40;;;17.40;;
1569;SDS011;778;50.120;8.698;2024-01-30T11:43:36;22.27;;;16.87;;
1569;SDS011;778;50.120;8.698;2024-01-30T11:46:05;14.10;;;12.60;;
1569;SDS011;778;50.120;8.698;2024-01-30T11:48:34;15.57;;;14.07;;
1569;SDS011;778;50.120;8.698;2024-01-30T11:51:03;18.43;;;16.67;;
1569;SDS011;778;50.120;8.698;2024-01-30T11:53:32;18.30;;;15.10;;
1569;SDS011;778;50.120;8.698;2024-01-30T11:56:02;16.80;;;15.03;;
1569;SDS011;778;50.120;8.698;2024-01-30T11:58:35;21.87;;;15.40;;
1569;SDS011;778;50.120;8.698;2024-01-30T12:01:04;22.17;;;17.20;;
1569;SDS011;778;50.120;8.698;2024-01-30T12:03:32;19.97;;;16.63;;
1569;SDS011;778;50.120;8.698;2024-01-30T12:06:02;16.67;;;15.07;;
1569;SDS011;778;50.120;8.698;2024-01-30T12:08:31;17.87;;;16.10;;
1569;SDS011;778;50.120;8.698;2024-01-30T12:11:00;20.47;;;16.17;;
1569;SDS011;778;50.120;8.698;2024-01-30T12:13:32;18.10;;;15.70;;
1569;SDS011;778;50.120;8.698;2024-01-30T12:16:00;20.60;;;15.87;;
1569;SDS011;778;50.120;8.698;2024-01-30T12:18:29;18.03;;;15.37;;
1569;SDS011;778;50.120;8.698;2024-01-30T12:20:58;20.63;;;14.77;;
1569;SDS011;778;50.120;8.698;2024-01-30T12:23:27;16.97;;;15.40;;
1569;SDS011;778;50.120;8.698;2024-01-30T12:25:57;18.60;;;16.50;;
1569;SDS011;778;50.120;8.698;2024-01-30T12:28:27;18.57;;;15.33;;
1569;SDS011;778;50.120;8.698;2024-01-30T12:30:56;17.27;;;14.37;;
1569;SDS011;778;50.120;8.698;2024-01-30T12:33:29;17.60;;;15.57;;
1569;SDS011;778;50.120;8.698;2024-01-30T12:36:00;17.63;;;15.20;;
1569;SDS011;778;50.120;8.698;2024-01-30T12:38:30;18.60;;;14.60;;
1569;SDS011;778;50.120;8.698;2024-01-30T12:40:59;17.60;;;14.63;;
1569;SDS011;778;50.120;8.698;2024-01-30T12:43:29;21.73;;;16.13;;
1569;SDS011;778;50.120;8.698;2024-01-30T12:46:04;17.53;;;15.70;;
1569;SDS011;778;50.120;8.698;2024-01-30T12:48:34;18.10;;;14.73;;
1569;SDS011;778;50.120;8.698;2024-01-30T12:51:03;17.23;;;14.77;;
1569;SDS011;778;50.120;8.698;2024-01-30T12:53:32;18.77;;;16.00;;
1569;SDS011;778;50.120;8.698;2024-01-30T12:56:01;19.83;;;16.67;;
1569;SDS011;778;50.120;8.698;2024-01-30T12:58:31;20.80;;;16.40;;
1569;SDS011;778;50.120;8.698;2024-01-30T13:01:00;21.03;;;15.43;;
1569;SDS011;778;50.120;8.698;2024-01-30T13:03:29;20.63;;;16.50;;
1569;SDS011;778;50.120;8.698;2024-01-30T13:06:00;22.03;;;16.27;;
1569;SDS011;778;50.120;8.698;2024-01-30T13:08:28;19.10;;;17.10;;
1569;SDS011;778;50.120;8.698;2024-01-30T13:10:57;19.80;;;17.60;;
1569;SDS011;778;50.120;8.698;2024-01-30T13:13:26;18.27;;;16.37;;
1569;SDS011;778;50.120;8.698;2024-01-30T13:15:57;20.43;;;17.57;;
1569;SDS011;778;50.120;8.698;2024-01-30T13:18:25;18.47;;;16.20;;
1569;SDS011;778;50.120;8.698;2024-01-30T13:20:54;22.80;;;17.80;;
1569;SDS011;778;50.120;8.698;2024-01-30T13:23:23;24.53;;;17.90;;
1569;SDS011;778;50.120;8.698;2024-01-30T13:25:52;21.00;;;17.87;;
1569;SDS011;778;50.120;8.698;2024-01-30T13:28:24;21.97;;;18.23;;
1569;SDS011;778;50.120;8.698;2024-01-30T13:30:53;21.50;;;16.87;;
1569;SDS011;778;50.120;8.698;2024-01-30T13:33:23;30.63;;;16.47;;
1569;SDS011;778;50.120;8.698;2024-01-30T13:35:52;17.57;;;15.77;;
1569;SDS011;778;50.120;8.698;2024-01-30T13:38:21;17.83;;;16.00;;
1569;SDS011;778;50.120;8.698;2024-01-30T13:40:49;19.13;;;17.13;;
1569;SDS011;778;50.120;8.698;2024-01-30T13:43:18;17.73;;;15.93;;
1569;SDS011;778;50.120;8.698;2024-01-30T13:45:47;19.03;;;16.90;;
1569;SDS011;778;50.120;8.698;2024-01-30T13:48:16;22.57;;;16.30;;
1569;SDS011;778;50.120;8.698;2024-01-30T13:50:46;20.30;;;16.37;;
1569;SDS011;778;50.120;8.698;2024-01-30T13:53:15;17.20;;;15.00;;
1569;SDS011;778;50.120;8.698;2024-01-30T13:55:44;20.60;;;17.60;;
1569;SDS011;778;50.120;8.698;2024-01-30T13:58:13;19.43;;;17.33;;
1569;SDS011;778;50.120;8.698;2024-01-30T14:00:42;19.77;;;17.40;;
1569;SDS011;778;50.120;8.698;2024-01-30T14:03:11;16.33;;;14.70;;
1569;SDS011;778;50.120;8.698;2024-01-30T14:05:40;18.60;;;16.23;;
1569;SDS011;778;50.120;8.698;2024-01-30T14:08:10;19.77;;;14.90;;
1569;SDS011;778;50.120;8.698;2024-01-30T14:10:39;15.77;;;13.53;;
1569;SDS011;778;50.120;8.698;2024-01-30T14:13:08;18.40;;;16.13;;
1569;SDS011;778;50.120;8.698;2024-01-30T14:15:38;19.63;;;16.90;;
1569;SDS011;778;50.120;8.698;2024-01-30T14:18:06;16.90;;;15.10;;
1569;SDS011;778;50.120;8.698;2024-01-30T14:20:37;19.03;;;16.90;;
1569;SDS011;778;50.120;8.698;2024-01-30T14:23:07;17.97;;;16.13;;
1569;SDS011;778;50.120;8.698;2024-01-30T14:25:37;17.90;;;15.23;;
1569;SDS011;778;50.120;8.698;2024-01-30T14:28:06;23.93;;;16.17;;
1569;SDS011;778;50.120;8.698;2024-01-30T14:30:34;17.37;;;15.57;;
1569;SDS011;778;50.120;8.698;2024-01-30T14:33:03;20.77;;;16.90;;
1569;SDS011;778;50.120;8.698;2024-01-30T14:35:33;18.83;;;15.00;;
1569;SDS011;778;50.120;8.698;2024-01-30T14:38:02;20.20;;;15.93;;
1569;SDS011;778;50.120;8.698;2024-01-30T14:40:35;18.60;;;16.40;;
1569;SDS011;778;50.120;8.698;2024-01-30T14:43:04;18.80;;;16.70;;
1569;SDS011;778;50.120;8.698;2024-01-30T14:45:33;19.10;;;17.07;;
1569;SDS011;778;50.120;8.698;2024-01-30T14:48:02;19.93;;;16.80;;
1569;SDS011;778;50.120;8.698;2024-01-30T14:50:31;19.20;;;16.67;;
1569;SDS011;778;50.120;8.698;2024-01-30T14:53:01;20.63;;;16.80;;
1569;SDS011;778;50.120;8.698;2024-01-30T14:55:29;19.90;;;15.73;;
1569;SDS011;778;50.120;8.698;2024-01-30T14:58:00;16.40;;;14.63;;
1569;SDS011;778;50.120;8.698;2024-01-30T15:00:29;24.87;;;17.37;;
1569;SDS011;778;50.120;8.698;2024-01-30T15:02:57;20.23;;;15.77;;
1569;SDS011;778;50.120;8.698;2024-01-30T15:05:26;22.70;;;17.50;;
1569;SDS011;778;50.120;8.698;2024-01-30T15:07:55;18.20;;;16.30;;
1569;SDS011;778;50.120;8.698;2024-01-30T15:10:24;20.60;;;18.20;;
1569;SDS011;778;50.120;8.698;2024-01-30T15:12:53;17.40;;;15.60;;
1569;SDS011;778;50.120;8.698;2024-01-30T15:15:23;19.30;;;16.27;;